createdAt,value
2018-12-21T00:01:37.056Z,49.37
2018-12-21T00:04:04.603Z,51.13
2018-12-21T00:06:32.135Z,49.57
2018-12-21T00:08:59.730Z,52.40
2018-12-21T00:11:27.365Z,50.63
2018-12-21T00:13:54.948Z,51.30
2018-12-21T00:16:23.927Z,47.80
2018-12-21T00:18:51.547Z,50.47
2018-12-21T00:21:21.899Z,50.93
2018-12-21T00:23:48.698Z,48.63
2018-12-21T00:26:16.262Z,50.83
2018-12-21T00:28:43.850Z,49.53
2018-12-21T00:31:17.887Z,50.10
2018-12-21T00:33:51.857Z,47.90
2018-12-21T00:36:25.964Z,52.30
2018-12-21T00:38:59.046Z,48.53
2018-12-21T00:41:26.059Z,50.40
2018-12-21T00:43:55.640Z,48.40
2018-12-21T00:46:26.200Z,48.47
2018-12-21T00:48:54.180Z,50.07
2018-12-21T00:51:30.031Z,49.60
2018-12-21T00:53:51.421Z,51.03
2018-12-21T00:56:18.968Z,49.80
2018-12-21T00:58:46.569Z,52.47
2018-12-21T01:01:14.139Z,52.43
2018-12-21T01:03:41.680Z,50.87
2018-12-21T01:06:09.244Z,49.23
2018-12-21T01:08:36.833Z,51.87
2018-12-21T01:11:04.433Z,51.27
2018-12-21T01:13:31.981Z,53.17
2018-12-21T01:16:00.464Z,53.57
2018-12-21T01:18:28.164Z,55.77
2018-12-21T01:20:55.756Z,56.50
2018-12-21T01:23:23.319Z,57.07
2018-12-21T01:25:52.997Z,54.97
2018-12-21T01:28:20.542Z,56.23
2018-12-21T01:30:48.100Z,55.07
2018-12-21T01:33:15.678Z,56.07
2018-12-21T01:35:43.932Z,52.60
2018-12-21T01:38:11.522Z,55.73
2018-12-21T01:40:39.117Z,56.33
2018-12-21T01:43:06.672Z,56.40
2018-12-21T01:45:35.080Z,60.67
2018-12-21T01:48:02.682Z,58.37
2018-12-21T01:50:30.229Z,60.07
2018-12-21T01:52:57.839Z,62.57
2018-12-21T01:55:25.538Z,61.90
2018-12-21T01:57:53.097Z,61.93
2018-12-21T02:00:41.880Z,60.70
2018-12-21T02:03:30.059Z,57.57
2018-12-21T02:05:57.793Z,60.17
2018-12-21T02:08:25.360Z,66.07
2018-12-21T02:10:52.892Z,67.23
2018-12-21T02:13:20.477Z,60.57
2018-12-21T02:15:48.130Z,60.67
2018-12-21T02:18:15.709Z,61.10
2018-12-21T02:20:45.658Z,59.17
2018-12-21T02:26:06.241Z,60.27
2018-12-21T02:28:33.881Z,61.00
2018-12-21T02:31:03.255Z,59.00
2018-12-21T02:33:30.859Z,58.10
2018-12-21T02:36:39.506Z,58.17
2018-12-21T02:47:44.718Z,59.83
2018-12-21T02:50:12.269Z,67.03
2018-12-21T02:52:39.835Z,61.27
2018-12-21T02:55:07.475Z,64.97
2018-12-21T02:57:35.043Z,62.50
2018-12-21T03:00:02.613Z,67.23
2018-12-21T03:02:31.169Z,64.77
2018-12-21T03:04:58.710Z,65.97
2018-12-21T03:07:26.260Z,66.80
2018-12-21T03:09:53.854Z,62.93
2018-12-21T03:12:21.387Z,63.17
2018-12-21T03:14:48.921Z,62.67
2018-12-21T03:17:16.511Z,60.23
2018-12-21T03:19:44.082Z,60.47
2018-12-21T03:22:14.968Z,59.90
2018-12-21T03:24:43.198Z,61.03
2018-12-21T03:27:10.801Z,56.17
2018-12-21T03:29:38.325Z,60.07
2018-12-21T03:32:05.911Z,61.13
2018-12-21T03:34:33.469Z,62.90
2018-12-21T03:37:01.028Z,63.57
2018-12-21T03:39:28.602Z,61.90
2018-12-21T03:41:56.147Z,60.70
2018-12-21T03:44:23.715Z,61.53
2018-12-21T03:46:51.299Z,61.40
2018-12-21T03:49:18.858Z,60.90
2018-12-21T03:51:46.443Z,61.10
2018-12-21T03:54:14.174Z,63.73
2018-12-21T03:56:41.855Z,71.23
2018-12-21T03:59:09.397Z,68.27
2018-12-21T04:01:37.002Z,77.23
2018-12-21T04:04:04.726Z,75.43
2018-12-21T04:06:32.333Z,64.47
2018-12-21T04:08:59.886Z,63.80
2018-12-21T04:11:27.466Z,65.07
2018-12-21T04:13:54.997Z,65.47
2018-12-21T04:16:22.598Z,59.17
2018-12-21T04:18:50.177Z,56.47
2018-12-21T04:21:17.986Z,57.70
2018-12-21T04:23:45.562Z,59.60
2018-12-21T04:26:13.145Z,60.20
2018-12-21T04:28:40.701Z,61.13
2018-12-21T04:31:08.311Z,59.70
2018-12-21T04:33:35.899Z,56.13
2018-12-21T04:36:03.472Z,61.90
2018-12-21T04:38:31.023Z,59.93
2018-12-21T04:40:58.587Z,61.47
2018-12-21T04:43:26.134Z,61.80
2018-12-21T04:45:53.993Z,55.63
2018-12-21T05:47:09.965Z,57.83
2018-12-21T05:49:38.159Z,57.63
2018-12-21T05:52:06.001Z,59.67
2018-12-21T05:54:33.741Z,62.43
2018-12-21T05:57:01.397Z,64.70
2018-12-21T05:59:29.433Z,60.00
2018-12-21T06:01:57.194Z,65.30
2018-12-21T06:04:29.001Z,67.33
2018-12-21T06:06:56.782Z,62.53
2018-12-21T06:09:24.463Z,64.97
2018-12-21T06:11:52.076Z,60.43
2018-12-21T06:14:21.154Z,79.00
2018-12-21T06:16:48.702Z,62.37
2018-12-21T06:19:17.393Z,63.63
2018-12-21T06:21:46.116Z,61.80
2018-12-21T06:24:13.769Z,62.17
2018-12-21T06:26:41.445Z,61.00
2018-12-21T06:29:09.143Z,62.13
2018-12-21T06:31:37.297Z,66.70
2018-12-21T06:34:04.928Z,64.57
2018-12-21T06:36:32.672Z,64.60
2018-12-21T06:39:00.308Z,63.90
2018-12-21T06:41:28.803Z,61.73
2018-12-21T06:43:56.412Z,64.50
2018-12-21T06:46:24.046Z,60.23
2018-12-21T06:48:51.645Z,61.70
2018-12-21T06:51:19.236Z,61.33
2018-12-21T06:53:46.825Z,63.60
2018-12-21T06:56:14.394Z,66.40
2018-12-21T06:58:42.100Z,63.80
2018-12-21T07:01:09.685Z,67.57
2018-12-21T07:03:37.259Z,64.30
2018-12-21T07:06:05.682Z,58.40
2018-12-21T07:08:33.234Z,57.63
2018-12-21T07:11:00.848Z,58.83
2018-12-21T07:13:30.455Z,59.73
2018-12-21T07:15:58.131Z,58.07
2018-12-21T07:18:25.895Z,60.23
2018-12-21T07:20:53.514Z,58.67
2018-12-21T07:23:27.061Z,59.00
2018-12-21T07:25:51.745Z,57.73
2018-12-21T07:28:19.986Z,53.07
2018-12-21T07:30:47.992Z,55.30
2018-12-21T07:33:15.773Z,58.33
2018-12-21T07:35:43.371Z,55.20
2018-12-21T07:38:11.076Z,56.53
2018-12-21T07:40:38.687Z,56.50
2018-12-21T07:43:06.709Z,56.43
2018-12-21T07:45:34.332Z,55.07
2018-12-21T07:48:02.048Z,54.13
2018-12-21T07:50:30.929Z,57.60
2018-12-21T07:52:59.417Z,54.57
2018-12-21T07:55:27.609Z,54.50
2018-12-21T07:57:55.228Z,53.70
2018-12-21T08:00:22.899Z,56.23
2018-12-21T08:02:50.538Z,56.20
2018-12-21T08:05:18.889Z,57.13
2018-12-21T08:07:46.584Z,58.87
2018-12-21T08:10:14.393Z,53.27
2018-12-21T08:12:42.260Z,55.80
2018-12-21T08:15:10.322Z,56.20
2018-12-21T08:17:37.893Z,55.40
2018-12-21T08:20:06.505Z,56.13
2018-12-21T08:22:35.093Z,58.27
2018-12-21T08:25:02.708Z,56.77
2018-12-21T08:27:30.337Z,58.83
2018-12-21T08:29:57.917Z,57.40
2018-12-21T08:32:25.517Z,62.67
2018-12-21T08:34:54.279Z,63.03
2018-12-21T08:37:22.883Z,87.83
2018-12-21T08:39:51.599Z,58.93
2018-12-21T08:42:19.447Z,62.67
2018-12-21T08:44:47.129Z,60.90
2018-12-21T08:47:15.768Z,62.27
2018-12-21T08:49:43.322Z,61.20
2018-12-21T08:52:11.220Z,63.27
2018-12-21T08:54:39.055Z,64.97
2018-12-21T08:57:06.823Z,71.30
2018-12-21T08:59:34.440Z,66.23
2018-12-21T09:02:02.044Z,65.73
2018-12-21T09:04:32.368Z,56.27
2018-12-21T09:06:59.485Z,59.27
2018-12-21T09:09:27.103Z,61.77
2018-12-21T09:11:54.732Z,61.90
2018-12-21T09:14:23.089Z,66.30
2018-12-21T09:16:50.778Z,73.93
2018-12-21T09:19:19.401Z,66.97
2018-12-21T09:21:46.989Z,68.83
2018-12-21T09:24:14.711Z,67.67
2018-12-21T09:26:42.290Z,62.77
2018-12-21T09:29:09.844Z,60.70
2018-12-21T09:31:37.697Z,58.60
2018-12-21T09:34:05.387Z,65.87
2018-12-21T09:36:33.523Z,78.60
2018-12-21T09:39:01.176Z,83.63
2018-12-21T09:41:28.748Z,84.37
2018-12-21T09:43:56.981Z,88.10
2018-12-21T09:46:25.398Z,73.97
2018-12-21T09:48:53.786Z,72.03
2018-12-21T09:51:21.528Z,70.97
2018-12-21T09:53:49.141Z,79.00
2018-12-21T09:56:16.810Z,81.77
2018-12-21T09:58:44.471Z,77.50
2018-12-21T10:01:12.951Z,79.17
2018-12-21T10:03:40.561Z,79.40
2018-12-21T10:06:10.128Z,72.90
2018-12-21T10:08:37.786Z,66.43
2018-12-21T10:11:05.370Z,71.57
2018-12-21T10:13:33.787Z,67.97
2018-12-21T10:16:01.339Z,72.80
2018-12-21T10:18:28.924Z,81.57
2018-12-21T10:20:56.457Z,74.10
2018-12-21T10:23:24.069Z,67.77
2018-12-21T10:25:51.604Z,70.17
2018-12-21T10:28:20.124Z,69.60
2018-12-21T10:30:47.652Z,71.67
2018-12-21T10:33:17.019Z,65.60
2018-12-21T10:35:44.767Z,66.80
2018-12-21T10:38:12.375Z,65.87
2018-12-21T10:40:40.060Z,66.73
2018-12-21T10:43:07.683Z,63.23
2018-12-21T10:45:41.631Z,61.57
2018-12-21T10:48:05.113Z,62.27
2018-12-21T10:50:32.874Z,60.17
2018-12-21T10:53:00.479Z,63.80
2018-12-21T10:55:28.919Z,65.93
2018-12-21T10:57:57.221Z,63.43
2018-12-21T11:00:24.890Z,61.57
2018-12-21T11:02:52.497Z,61.93
2018-12-21T11:05:20.190Z,66.17
2018-12-21T11:07:47.856Z,68.73
2018-12-21T11:10:16.426Z,66.00
2018-12-21T11:12:44.121Z,64.23
2018-12-21T11:15:11.685Z,66.30
2018-12-21T11:17:39.328Z,71.50
2018-12-21T11:20:07.259Z,68.07
2018-12-21T11:22:35.606Z,65.77
2018-12-21T11:25:06.522Z,64.60
2018-12-21T11:27:34.086Z,68.07
2018-12-21T11:30:01.764Z,69.53
2018-12-21T11:32:29.401Z,68.07
2018-12-21T11:34:56.971Z,69.77
2018-12-21T11:37:24.633Z,67.20
2018-12-21T11:39:53.059Z,65.23
2018-12-21T11:42:22.007Z,70.47
2018-12-21T11:44:49.641Z,66.60
2018-12-21T11:47:17.477Z,66.97
2018-12-21T11:49:45.131Z,70.10
2018-12-21T11:52:12.702Z,67.90
2018-12-21T11:54:44.143Z,73.47
2018-12-21T11:57:09.850Z,82.70
2018-12-21T11:59:44.677Z,75.17
2018-12-21T12:02:06.977Z,81.23
2018-12-21T12:04:34.534Z,84.97
2018-12-21T12:07:04.238Z,88.27
2018-12-21T12:09:31.792Z,76.73
2018-12-21T12:11:59.444Z,77.33
2018-12-21T12:14:27.077Z,74.87
2018-12-21T12:16:58.739Z,70.47
2018-12-21T12:19:26.779Z,71.33
2018-12-21T12:21:54.320Z,72.67
2018-12-21T12:24:25.654Z,73.10
2018-12-21T12:26:53.196Z,72.67
2018-12-21T12:29:20.710Z,70.97
2018-12-21T12:31:48.362Z,70.80
2018-12-21T12:34:15.927Z,69.97
2018-12-21T12:36:43.915Z,69.73
2018-12-21T12:39:11.464Z,71.60
2018-12-21T12:41:38.980Z,72.70
2018-12-21T12:44:06.540Z,71.23
2018-12-21T12:46:34.860Z,79.23
2018-12-21T12:49:02.416Z,75.57
2018-12-21T12:51:29.918Z,79.77
2018-12-21T12:53:57.475Z,78.03
2018-12-21T12:56:25.003Z,86.73
2018-12-21T12:58:53.478Z,81.77
2018-12-21T13:01:21.988Z,69.03
2018-12-21T13:03:49.517Z,69.17
2018-12-21T13:06:17.081Z,70.77
2018-12-21T13:08:45.673Z,78.50
2018-12-21T13:11:15.862Z,65.20
2018-12-21T13:13:43.447Z,67.17
2018-12-21T13:16:10.965Z,69.97
2018-12-21T13:18:39.181Z,67.73
2018-12-21T13:21:06.699Z,60.77
2018-12-21T13:23:34.247Z,62.70
2018-12-21T13:26:02.691Z,60.83
2018-12-21T13:28:30.246Z,59.50
2018-12-21T13:30:58.783Z,65.67
2018-12-21T13:33:27.308Z,58.93
2018-12-21T13:35:54.828Z,59.00
2018-12-21T13:38:22.375Z,60.20
2018-12-21T13:40:49.888Z,62.80
2018-12-21T13:43:19.077Z,67.50
2018-12-21T13:45:46.616Z,61.53
2018-12-21T13:48:14.139Z,65.87
2018-12-21T13:50:41.693Z,63.17
2018-12-21T13:53:09.194Z,66.63
2018-12-21T13:55:36.766Z,61.00
2018-12-21T13:58:04.283Z,63.60
2018-12-21T14:00:31.800Z,62.37
2018-12-21T14:02:59.351Z,60.20
2018-12-21T14:05:26.884Z,62.20
2018-12-21T14:07:54.442Z,64.37
2018-12-21T14:10:21.978Z,63.10
2018-12-21T14:12:49.535Z,63.43
2018-12-21T14:15:18.352Z,65.13
2018-12-21T14:17:45.868Z,66.00
2018-12-21T14:20:13.446Z,65.10
2018-12-21T14:22:42.629Z,69.80
2018-12-21T14:25:10.194Z,60.43
2018-12-21T14:27:37.733Z,56.60
2018-12-21T14:30:07.634Z,58.53
2018-12-21T14:32:35.167Z,77.83
2018-12-21T14:35:02.709Z,70.37
2018-12-21T14:37:30.245Z,63.23
2018-12-21T14:39:57.811Z,67.87
2018-12-21T14:42:25.328Z,65.47
2018-12-21T14:44:52.989Z,62.67
2018-12-21T14:47:20.533Z,63.70
2018-12-21T14:49:48.079Z,68.37
2018-12-21T14:52:15.608Z,69.00
2018-12-21T14:54:43.162Z,70.87
2018-12-21T14:57:10.758Z,70.90
2018-12-21T14:59:38.271Z,74.27
2018-12-21T15:02:06.000Z,70.47
2018-12-21T15:04:33.587Z,67.50
2018-12-21T15:07:01.195Z,79.53
2018-12-21T15:09:28.743Z,74.10
2018-12-21T15:11:56.309Z,73.33
2018-12-21T15:14:23.832Z,69.80
2018-12-21T15:16:51.612Z,75.40
2018-12-21T15:19:19.130Z,79.03
2018-12-21T15:21:46.712Z,78.33
2018-12-21T15:24:14.240Z,81.00
2018-12-21T15:26:41.810Z,100.63
2018-12-21T15:29:09.375Z,97.43
2018-12-21T15:31:36.905Z,91.17
2018-12-21T15:34:04.484Z,92.53
2018-12-21T15:36:32.013Z,84.30
2018-12-21T15:38:59.601Z,93.63
2018-12-21T15:41:27.981Z,93.53
2018-12-21T15:43:55.567Z,96.10
2018-12-21T15:46:23.976Z,103.13
2018-12-21T15:48:51.523Z,83.73
2018-12-21T15:51:19.064Z,83.83
2018-12-21T15:53:46.655Z,85.40
2018-12-21T15:56:14.267Z,90.03
2018-12-21T15:58:42.781Z,92.40
2018-12-21T16:01:13.591Z,94.10
2018-12-21T16:03:41.139Z,92.63
2018-12-21T16:06:08.688Z,86.13
2018-12-21T16:08:38.048Z,92.17
2018-12-21T16:11:05.582Z,93.60
2018-12-21T16:13:34.078Z,91.17
2018-12-21T16:16:01.726Z,90.33
2018-12-21T16:18:29.309Z,97.87
2018-12-21T16:20:58.331Z,85.17
2018-12-21T16:23:25.873Z,101.30
2018-12-21T16:25:53.417Z,84.00
2018-12-21T16:28:20.968Z,83.37
2018-12-21T16:30:48.554Z,91.27
2018-12-21T16:33:16.139Z,89.13
2018-12-21T16:35:44.625Z,86.47
2018-12-21T16:38:12.271Z,85.87
2018-12-21T16:40:40.726Z,86.10
2018-12-21T16:43:08.248Z,85.70
2018-12-21T16:45:36.913Z,85.77
2018-12-21T16:48:04.444Z,85.20
2018-12-21T16:50:32.873Z,90.17
2018-12-21T16:53:01.473Z,90.97
2018-12-21T16:55:29.034Z,88.83
2018-12-21T16:57:56.559Z,91.23
2018-12-21T17:00:25.982Z,93.77
2018-12-21T17:02:53.533Z,90.73
2018-12-21T17:05:21.105Z,92.63
2018-12-21T17:07:49.692Z,88.93
2018-12-21T17:10:18.774Z,88.67
2018-12-21T17:12:46.857Z,89.77
2018-12-21T17:15:14.393Z,88.03
2018-12-21T17:17:41.993Z,88.33
2018-12-21T17:20:10.363Z,95.10
2018-12-21T17:22:39.649Z,109.53
2018-12-21T17:25:08.110Z,115.93
2018-12-21T17:27:35.768Z,105.80
2018-12-21T17:30:07.767Z,104.60
2018-12-21T17:32:35.307Z,98.57
2018-12-21T17:35:06.705Z,105.80
2018-12-21T17:37:34.449Z,103.33
2018-12-21T17:40:02.050Z,101.03
2018-12-21T17:42:29.693Z,103.27
2018-12-21T17:44:58.351Z,97.80
2018-12-21T17:47:25.956Z,95.20
2018-12-21T17:49:54.484Z,89.97
2018-12-21T17:52:23.052Z,88.90
2018-12-21T17:54:50.642Z,91.20
2018-12-21T17:57:18.187Z,108.83
2018-12-21T17:59:45.906Z,99.43
2018-12-21T18:02:15.395Z,105.73
2018-12-21T18:04:42.951Z,120.90
2018-12-21T18:07:12.402Z,107.93
2018-12-21T18:09:40.025Z,93.70
2018-12-21T18:12:07.836Z,98.97
2018-12-21T18:14:36.923Z,95.70
2018-12-21T18:17:05.554Z,92.63
2018-12-21T18:19:34.030Z,96.27
2018-12-21T18:22:05.074Z,94.93
2018-12-21T18:24:32.641Z,95.17
2018-12-21T18:27:01.214Z,99.97
2018-12-21T18:29:28.882Z,100.77
2018-12-21T18:31:57.803Z,102.10
2018-12-21T18:34:28.982Z,107.17
2018-12-21T18:36:56.515Z,98.47
2018-12-21T18:39:25.223Z,99.07
2018-12-21T18:41:52.752Z,103.83
2018-12-21T18:44:20.301Z,107.43
2018-12-21T18:46:48.857Z,108.07
2018-12-21T18:49:16.391Z,109.57
2018-12-21T18:51:43.915Z,111.07
2018-12-21T18:54:13.280Z,112.83
2018-12-21T18:56:47.370Z,120.27
2018-12-21T18:59:15.419Z,114.07
2018-12-21T19:01:44.834Z,116.33
2018-12-21T19:04:12.411Z,102.03
2018-12-21T19:06:39.985Z,105.13
2018-12-21T19:09:08.896Z,108.40
2018-12-21T19:11:37.166Z,107.97
2018-12-21T19:14:04.732Z,105.17
2018-12-21T19:16:34.099Z,98.73
2018-12-21T19:19:01.637Z,101.17
2018-12-21T19:21:35.797Z,102.17
2018-12-21T19:24:05.384Z,95.53
2018-12-21T19:26:32.998Z,93.13
2018-12-21T19:29:00.765Z,92.70
2018-12-21T19:31:29.785Z,94.77
2018-12-21T19:33:57.329Z,94.73
2018-12-21T19:36:25.836Z,95.07
2018-12-21T19:38:54.683Z,91.97
2018-12-21T19:41:22.241Z,99.77
2018-12-21T19:43:49.828Z,95.87
2018-12-21T19:46:21.045Z,93.67
2018-12-21T19:48:48.642Z,98.83
2018-12-21T19:51:16.183Z,95.77
2018-12-21T19:53:44.841Z,99.13
2018-12-21T19:56:13.607Z,97.93
2018-12-21T19:58:48.642Z,101.57
2018-12-21T20:01:16.184Z,103.37
2018-12-21T20:03:43.746Z,106.40
2018-12-21T20:06:12.542Z,109.03
2018-12-21T20:08:40.077Z,107.67
2018-12-21T20:11:08.805Z,111.53
2018-12-21T20:13:38.211Z,108.40
2018-12-21T20:16:05.846Z,111.30
2018-12-21T20:18:34.212Z,111.47
2018-12-21T20:21:02.734Z,117.10
2018-12-21T20:23:30.303Z,113.93
2018-12-21T20:25:57.846Z,111.83
2018-12-21T20:28:27.961Z,112.03
2018-12-21T20:30:55.524Z,115.50
2018-12-21T20:33:23.920Z,109.83
2018-12-21T20:35:53.384Z,105.63
2018-12-21T20:38:21.559Z,107.97
2018-12-21T20:40:49.495Z,104.20
2018-12-21T20:43:17.068Z,102.57
2018-12-21T20:45:46.640Z,102.47
2018-12-21T20:48:14.198Z,103.67
2018-12-21T20:50:42.605Z,104.07
2018-12-21T20:53:11.617Z,104.17
2018-12-21T20:55:41.997Z,106.43
2018-12-21T20:58:10.650Z,108.17
2018-12-21T21:00:40.227Z,115.37
2018-12-21T21:03:07.775Z,113.90
2018-12-21T21:11:50.313Z,122.63
2018-12-21T21:17:38.364Z,117.53
2018-12-21T21:23:22.068Z,127.80
2018-12-21T21:29:13.448Z,114.63
2018-12-21T21:35:01.335Z,108.07
2018-12-21T21:40:40.957Z,106.23
2018-12-21T21:46:19.025Z,109.13
2018-12-21T21:52:04.477Z,117.97
2018-12-21T21:57:47.692Z,104.20
2018-12-21T22:03:35.382Z,110.33
2018-12-21T22:09:19.205Z,109.47
2018-12-21T22:14:55.881Z,101.83
2018-12-21T22:20:38.852Z,115.03
2018-12-21T22:26:19.803Z,109.13
2018-12-21T22:32:08.805Z,89.83
2018-12-21T22:37:49.612Z,87.43
2018-12-21T22:43:26.287Z,84.87
2018-12-21T22:49:10.971Z,92.70
2018-12-21T22:55:01.720Z,83.97
2018-12-21T23:00:38.268Z,86.07
2018-12-21T23:06:15.142Z,91.27
2018-12-21T23:11:56.472Z,83.83
2018-12-21T23:17:37.445Z,78.97
2018-12-21T23:23:13.903Z,82.07
2018-12-21T23:28:48.782Z,61.33
2018-12-21T23:34:31.223Z,60.10
2018-12-21T23:40:11.638Z,75.97
2018-12-21T23:46:08.519Z,77.27
2018-12-21T23:51:51.958Z,73.53
2018-12-21T23:57:32.910Z,96.90
